sensor_id;sensor_type;location;lat;lon;timestamp;temperature;humidity
19359;DHT22;9815;52.334;20.890;2023-09-30T00:00:22;17.60;99.90
19359;DHT22;9815;52.334;20.890;2023-09-30T00:02:51;17.60;99.90
19359;DHT22;9815;52.334;20.890;2023-09-30T00:05:19;17.60;99.90
19359;DHT22;9815;52.334;20.890;2023-09-30T00:07:47;17.60;99.90
19359;DHT22;9815;52.334;20.890;2023-09-30T00:10:15;17.60;99.90
19359;DHT22;9815;52.334;20.890;2023-09-30T00:12:46;17.70;99.90
19359;DHT22;9815;52.334;20.890;2023-09-30T00:15:14;17.70;99.90
19359;DHT22;9815;52.334;20.890;2023-09-30T00:17:42;17.70;99.90
19359;DHT22;9815;52.334;20.890;2023-09-30T00:20:11;17.70;99.90
19359;DHT22;9815;52.334;20.890;2023-09-30T00:22:43;17.70;99.90
19359;DHT22;9815;52.334;20.890;2023-09-30T00:25:11;17.60;99.90
19359;DHT22;9815;52.334;20.890;2023-09-30T00:27:39;17.70;99.90
19359;DHT22;9815;52.334;20.890;2023-09-30T00:30:10;17.60;99.90
19359;DHT22;9815;52.334;20.890;2023-09-30T00:32:38;17.70;99.90
19359;DHT22;9815;52.334;20.890;2023-09-30T00:35:08;17.70;99.90
19359;DHT22;9815;52.334;20.890;2023-09-30T00:37:38;17.60;99.90
19359;DHT22;9815;52.334;20.890;2023-09-30T00:40:07;17.60;99.90
19359;DHT22;9815;52.334;20.890;2023-09-30T00:42:39;17.70;99.90
19359;DHT22;9815;52.334;20.890;2023-09-30T00:45:10;17.70;99.90
19359;DHT22;9815;52.334;20.890;2023-09-30T00:47:39;17.70;99.90
19359;DHT22;9815;52.334;20.890;2023-09-30T00:50:09;17.70;99.90
19359;DHT22;9815;52.334;20.890;2023-09-30T00:52:39;17.60;99.90
19359;DHT22;9815;52.334;20.890;2023-09-30T00:55:09;17.40;99.90
19359;DHT22;9815;52.334;20.890;2023-09-30T00:57:38;17.30;99.90
19359;DHT22;9815;52.334;20.890;2023-09-30T01:00:09;17.10;99.90
19359;DHT22;9815;52.334;20.890;2023-09-30T01:02:39;17.00;99.90
19359;DHT22;9815;52.334;20.890;2023-09-30T01:05:09;16.90;99.90
19359;DHT22;9815;52.334;20.890;2023-09-30T01:07:37;16.90;99.90
19359;DHT22;9815;52.334;20.890;2023-09-30T01:10:06;16.80;99.90
19359;DHT22;9815;52.334;20.890;2023-09-30T01:12:35;16.70;99.90
19359;DHT22;9815;52.334;20.890;2023-09-30T01:15:05;16.50;99.90
19359;DHT22;9815;52.334;20.890;2023-09-30T01:17:36;16.40;99.90
19359;DHT22;9815;52.334;20.890;2023-09-30T01:20:05;16.30;99.90
19359;DHT22;9815;52.334;20.890;2023-09-30T01:22:37;16.30;99.90
19359;DHT22;9815;52.334;20.890;2023-09-30T01:25:07;16.30;99.90
19359;DHT22;9815;52.334;20.890;2023-09-30T01:27:37;16.30;99.90
19359;DHT22;9815;52.334;20.890;2023-09-30T01:30:06;16.20;99.90
19359;DHT22;9815;52.334;20.890;2023-09-30T01:32:38;16.20;99.90
19359;DHT22;9815;52.334;20.890;2023-09-30T01:35:07;16.20;99.90
19359;DHT22;9815;52.334;20.890;2023-09-30T01:37:39;16.20;99.90
19359;DHT22;9815;52.334;20.890;2023-09-30T01:40:09;16.20;99.90
19359;DHT22;9815;52.334;20.890;2023-09-30T01:42:38;16.30;99.90
19359;DHT22;9815;52.334;20.890;2023-09-30T01:45:07;16.30;99.90
19359;DHT22;9815;52.334;20.890;2023-09-30T01:47:37;16.20;99.90
19359;DHT22;9815;52.334;20.890;2023-09-30T01:50:06;16.20;99.90
19359;DHT22;9815;52.334;20.890;2023-09-30T01:52:35;16.20;99.90
19359;DHT22;9815;52.334;20.890;2023-09-30T01:55:05;16.20;99.90
19359;DHT22;9815;52.334;20.890;2023-09-30T01:57:33;16.20;99.90
19359;DHT22;9815;52.334;20.890;2023-09-30T02:00:02;16.20;99.90
19359;DHT22;9815;52.334;20.890;2023-09-30T02:02:38;16.20;99.90
19359;DHT22;9815;52.334;20.890;2023-09-30T02:05:08;16.20;99.90
19359;DHT22;9815;52.334;20.890;2023-09-30T02:07:36;16.20;99.90
19359;DHT22;9815;52.334;20.890;2023-09-30T02:10:08;16.30;99.90
19359;DHT22;9815;52.334;20.890;2023-09-30T02:12:36;16.20;99.90
19359;DHT22;9815;52.334;20.890;2023-09-30T02:15:06;16.20;99.90
19359;DHT22;9815;52.334;20.890;2023-09-30T02:17:34;16.20;99.90
19359;DHT22;9815;52.334;20.890;2023-09-30T02:20:04;16.20;99.90
19359;DHT22;9815;52.334;20.890;2023-09-30T02:22:38;16.20;99.90
19359;DHT22;9815;52.334;20.890;2023-09-30T02:25:08;16.10;99.90
19359;DHT22;9815;52.334;20.890;2023-09-30T02:27:37;16.10;99.90
19359;DHT22;9815;52.334;20.890;2023-09-30T02:30:06;16.10;99.90
19359;DHT22;9815;52.334;20.890;2023-09-30T02:32:35;16.10;99.90
19359;DHT22;9815;52.334;20.890;2023-09-30T02:35:04;16.20;99.90
19359;DHT22;9815;52.334;20.890;2023-09-30T02:37:33;16.20;99.90
19359;DHT22;9815;52.334;20.890;2023-09-30T02:40:04;16.20;99.90
19359;DHT22;9815;52.334;20.890;2023-09-30T02:42:39;16.20;99.90
19359;DHT22;9815;52.334;20.890;2023-09-30T02:45:08;16.20;99.90
19359;DHT22;9815;52.334;20.890;2023-09-30T02:47:38;16.30;99.90
19359;DHT22;9815;52.334;20.890;2023-09-30T02:50:08;16.30;99.90
19359;DHT22;9815;52.334;20.890;2023-09-30T02:52:38;16.30;99.90
19359;DHT22;9815;52.334;20.890;2023-09-30T02:55:08;16.30;99.90
19359;DHT22;9815;52.334;20.890;2023-09-30T02:57:39;16.30;99.90
19359;DHT22;9815;52.334;20.890;2023-09-30T03:00:09;16.30;99.90
19359;DHT22;9815;52.334;20.890;2023-09-30T03:02:51;16.30;99.90
19359;DHT22;9815;52.334;20.890;2023-09-30T03:05:20;16.20;99.90
19359;DHT22;9815;52.334;20.890;2023-09-30T03:07:48;16.20;99.90
19359;DHT22;9815;52.334;20.890;2023-09-30T03:10:18;16.20;99.90
19359;DHT22;9815;52.334;20.890;2023-09-30T03:12:49;16.20;99.90
19359;DHT22;9815;52.334;20.890;2023-09-30T03:15:17;16.00;99.90
19359;DHT22;9815;52.334;20.890;2023-09-30T03:17:46;15.90;99.90
19359;DHT22;9815;52.334;20.890;2023-09-30T03:20:19;15.90;99.90
19359;DHT22;9815;52.334;20.890;2023-09-30T03:22:48;15.80;99.90
19359;DHT22;9815;52.334;20.890;2023-09-30T03:25:18;15.70;99.90
19359;DHT22;9815;52.334;20.890;2023-09-30T03:27:49;15.60;99.90
19359;DHT22;9815;52.334;20.890;2023-09-30T03:30:18;15.60;99.90
19359;DHT22;9815;52.334;20.890;2023-09-30T03:32:48;15.60;99.90
19359;DHT22;9815;52.334;20.890;2023-09-30T03:35:16;15.60;99.90
19359;DHT22;9815;52.334;20.890;2023-09-30T03:37:46;15.60;99.90
19359;DHT22;9815;52.334;20.890;2023-09-30T03:40:15;15.60;99.90
19359;DHT22;9815;52.334;20.890;2023-09-30T03:42:48;15.70;99.90
19359;DHT22;9815;52.334;20.890;2023-09-30T03:45:17;15.60;99.90
19359;DHT22;9815;52.334;20.890;2023-09-30T03:47:46;15.70;99.90
19359;DHT22;9815;52.334;20.890;2023-09-30T03:50:16;15.70;99.90
19359;DHT22;9815;52.334;20.890;2023-09-30T03:52:45;15.80;99.90
19359;DHT22;9815;52.334;20.890;2023-09-30T03:55:15;15.80;99.90
19359;DHT22;9815;52.334;20.890;2023-09-30T03:57:49;15.70;99.90
19359;DHT22;9815;52.334;20.890;2023-09-30T04:00:18;15.60;99.90
19359;DHT22;9815;52.334;20.890;2023-09-30T04:02:48;15.60;99.90
19359;DHT22;9815;52.334;20.890;2023-09-30T04:05:18;15.60;99.90
19359;DHT22;9815;52.334;20.890;2023-09-30T04:07:47;15.50;99.90
19359;DHT22;9815;52.334;20.890;2023-09-30T04:10:15;15.50;99.90
19359;DHT22;9815;52.334;20.890;2023-09-30T04:12:49;15.40;99.90
19359;DHT22;9815;52.334;20.890;2023-09-30T04:15:18;15.40;99.90
19359;DHT22;9815;52.334;20.890;2023-09-30T04:17:47;15.40;99.90
19359;DHT22;9815;52.334;20.890;2023-09-30T04:20:15;15.40;99.90
19359;DHT22;9815;52.334;20.890;2023-09-30T04:22:48;15.40;99.90
19359;DHT22;9815;52.334;20.890;2023-09-30T04:25:17;15.50;99.90
19359;DHT22;9815;52.334;20.890;2023-09-30T04:27:46;15.50;99.90
19359;DHT22;9815;52.334;20.890;2023-09-30T04:30:18;15.50;99.90
19359;DHT22;9815;52.334;20.890;2023-09-30T04:32:46;15.60;99.90
19359;DHT22;9815;52.334;20.890;2023-09-30T04:35:15;15.60;99.90
19359;DHT22;9815;52.334;20.890;2023-09-30T04:37:44;15.60;99.90
19359;DHT22;9815;52.334;20.890;2023-09-30T04:40:12;15.60;99.90
19359;DHT22;9815;52.334;20.890;2023-09-30T04:42:47;15.60;99.90
19359;DHT22;9815;52.334;20.890;2023-09-30T04:45:17;15.60;99.90
19359;DHT22;9815;52.334;20.890;2023-09-30T04:47:47;15.60;99.90
19359;DHT22;9815;52.334;20.890;2023-09-30T04:50:17;15.60;99.90
19359;DHT22;9815;52.334;20.890;2023-09-30T04:52:49;15.60;99.90
19359;DHT22;9815;52.334;20.890;2023-09-30T04:55:18;15.60;99.90
19359;DHT22;9815;52.334;20.890;2023-09-30T04:57:47;15.60;99.90
19359;DHT22;9815;52.334;20.890;2023-09-30T05:00:19;15.70;99.90
19359;DHT22;9815;52.334;20.890;2023-09-30T05:02:52;15.70;99.90
19359;DHT22;9815;52.334;20.890;2023-09-30T05:05:21;15.70;99.90
19359;DHT22;9815;52.334;20.890;2023-09-30T05:07:49;15.70;99.90
19359;DHT22;9815;52.334;20.890;2023-09-30T05:10:17;15.70;99.90
19359;DHT22;9815;52.334;20.890;2023-09-30T05:12:46;15.70;99.90
19359;DHT22;9815;52.334;20.890;2023-09-30T05:15:15;15.80;99.90
19359;DHT22;9815;52.334;20.890;2023-09-30T05:17:46;15.80;99.90
19359;DHT22;9815;52.334;20.890;2023-09-30T05:20:15;15.80;99.90
19359;DHT22;9815;52.334;20.890;2023-09-30T05:22:45;15.90;99.90
19359;DHT22;9815;52.334;20.890;2023-09-30T05:25:14;15.90;99.90
19359;DHT22;9815;52.334;20.890;2023-09-30T05:27:44;15.90;99.90
19359;DHT22;9815;52.334;20.890;2023-09-30T05:30:15;15.90;99.90
19359;DHT22;9815;52.334;20.890;2023-09-30T05:32:45;16.00;99.90
19359;DHT22;9815;52.334;20.890;2023-09-30T05:35:14;15.90;99.90
19359;DHT22;9815;52.334;20.890;2023-09-30T05:37:45;16.00;99.90
19359;DHT22;9815;52.334;20.890;2023-09-30T05:40:13;16.00;99.90
19359;DHT22;9815;52.334;20.890;2023-09-30T05:42:50;16.00;99.90
19359;DHT22;9815;52.334;20.890;2023-09-30T05:45:19;16.00;99.90
19359;DHT22;9815;52.334;20.890;2023-09-30T05:47:49;16.00;99.90
19359;DHT22;9815;52.334;20.890;2023-09-30T05:50:20;16.00;99.90
19359;DHT22;9815;52.334;20.890;2023-09-30T05:52:54;16.00;99.90
19359;DHT22;9815;52.334;20.890;2023-09-30T05:55:23;16.00;99.90
19359;DHT22;9815;52.334;20.890;2023-09-30T05:57:53;16.00;99.90
19359;DHT22;9815;52.334;20.890;2023-09-30T06:00:22;15.90;99.90
19359;DHT22;9815;52.334;20.890;2023-09-30T06:02:58;15.90;99.90
19359;DHT22;9815;52.334;20.890;2023-09-30T06:05:27;15.80;99.90
19359;DHT22;9815;52.334;20.890;2023-09-30T06:07:59;15.80;99.90
19359;DHT22;9815;52.334;20.890;2023-09-30T06:10:30;15.70;99.90
19359;DHT22;9815;52.334;20.890;2023-09-30T06:12:58;15.70;99.90
19359;DHT22;9815;52.334;20.890;2023-09-30T06:15:27;15.70;99.90
19359;DHT22;9815;52.334;20.890;2023-09-30T06:17:57;15.70;99.90
19359;DHT22;9815;52.334;20.890;2023-09-30T06:20:27;15.70;99.90
19359;DHT22;9815;52.334;20.890;2023-09-30T06:22:58;15.70;99.90
19359;DHT22;9815;52.334;20.890;2023-09-30T06:25:27;15.70;99.90
19359;DHT22;9815;52.334;20.890;2023-09-30T06:27:57;15.60;99.90
19359;DHT22;9815;52.334;20.890;2023-09-30T06:30:25;15.60;99.90
19359;DHT22;9815;52.334;20.890;2023-09-30T06:32:59;15.60;99.90
19359;DHT22;9815;52.334;20.890;2023-09-30T06:35:28;15.60;99.90
19359;DHT22;9815;52.334;20.890;2023-09-30T06:38:01;15.70;99.90
19359;DHT22;9815;52.334;20.890;2023-09-30T06:40:30;15.70;99.90
19359;DHT22;9815;52.334;20.890;2023-09-30T06:42:58;15.70;99.90
19359;DHT22;9815;52.334;20.890;2023-09-30T06:45:28;15.70;99.90
19359;DHT22;9815;52.334;20.890;2023-09-30T06:47:56;15.80;99.90
19359;DHT22;9815;52.334;20.890;2023-09-30T06:50:26;15.80;99.90
19359;DHT22;9815;52.334;20.890;2023-09-30T06:52:54;15.80;99.90
19359;DHT22;9815;52.334;20.890;2023-09-30T06:55:23;15.90;99.90
19359;DHT22;9815;52.334;20.890;2023-09-30T06:57:52;15.90;99.90
19359;DHT22;9815;52.334;20.890;2023-09-30T07:00:20;15.90;99.90
19359;DHT22;9815;52.334;20.890;2023-09-30T07:02:49;15.90;99.90
19359;DHT22;9815;52.334;20.890;2023-09-30T07:05:18;15.90;99.90
19359;DHT22;9815;52.334;20.890;2023-09-30T07:07:48;16.00;99.90
19359;DHT22;9815;52.334;20.890;2023-09-30T07:10:16;16.00;99.90
19359;DHT22;9815;52.334;20.890;2023-09-30T07:12:45;16.00;99.90
19359;DHT22;9815;52.334;20.890;2023-09-30T07:15:13;16.00;99.90
19359;DHT22;9815;52.334;20.890;2023-09-30T07:17:42;16.00;99.90
19359;DHT22;9815;52.334;20.890;2023-09-30T07:20:12;16.00;99.90
19359;DHT22;9815;52.334;20.890;2023-09-30T07:22:40;16.00;99.90
19359;DHT22;9815;52.334;20.890;2023-09-30T07:25:30;16.00;99.90
19359;DHT22;9815;52.334;20.890;2023-09-30T07:28:00;16.00;99.90
19359;DHT22;9815;52.334;20.890;2023-09-30T07:30:29;16.00;99.90
19359;DHT22;9815;52.334;20.890;2023-09-30T07:32:57;15.90;99.90
19359;DHT22;9815;52.334;20.890;2023-09-30T07:35:25;16.00;99.90
19359;DHT22;9815;52.334;20.890;2023-09-30T07:37:54;16.00;99.90
19359;DHT22;9815;52.334;20.890;2023-09-30T07:40:22;16.00;99.90
19359;DHT22;9815;52.334;20.890;2023-09-30T07:42:52;16.10;99.90
19359;DHT22;9815;52.334;20.890;2023-09-30T07:45:20;16.10;99.90
19359;DHT22;9815;52.334;20.890;2023-09-30T07:47:49;16.20;99.90
19359;DHT22;9815;52.334;20.890;2023-09-30T07:50:18;16.30;99.90
19359;DHT22;9815;52.334;20.890;2023-09-30T07:52:46;16.40;99.90
19359;DHT22;9815;52.334;20.890;2023-09-30T07:55:15;16.40;99.90
19359;DHT22;9815;52.334;20.890;2023-09-30T07:57:43;16.50;99.90
19359;DHT22;9815;52.334;20.890;2023-09-30T08:00:16;16.60;99.90
19359;DHT22;9815;52.334;20.890;2023-09-30T08:02:44;16.60;99.90
19359;DHT22;9815;52.334;20.890;2023-09-30T08:05:13;16.80;99.90
19359;DHT22;9815;52.334;20.890;2023-09-30T08:07:41;16.80;99.90
19359;DHT22;9815;52.334;20.890;2023-09-30T08:10:10;16.90;99.90
19359;DHT22;9815;52.334;20.890;2023-09-30T08:12:41;16.90;99.90
19359;DHT22;9815;52.334;20.890;2023-09-30T08:15:14;17.00;99.90
19359;DHT22;9815;52.334;20.890;2023-09-30T08:17:43;17.00;99.90
19359;DHT22;9815;52.334;20.890;2023-09-30T08:20:11;17.00;99.90
19359;DHT22;9815;52.334;20.890;2023-09-30T08:22:40;17.00;99.90
19359;DHT22;9815;52.334;20.890;2023-09-30T08:25:09;17.00;99.90
19359;DHT22;9815;52.334;20.890;2023-09-30T08:27:38;17.00;99.90
19359;DHT22;9815;52.334;20.890;2023-09-30T08:30:08;17.00;99.90
19359;DHT22;9815;52.334;20.890;2023-09-30T08:32:38;17.10;99.90
19359;DHT22;9815;52.334;20.890;2023-09-30T08:35:08;17.10;99.90
19359;DHT22;9815;52.334;20.890;2023-09-30T08:37:36;17.20;99.90
19359;DHT22;9815;52.334;20.890;2023-09-30T08:40:06;17.20;99.90
19359;DHT22;9815;52.334;20.890;2023-09-30T08:42:38;17.30;99.90
19359;DHT22;9815;52.334;20.890;2023-09-30T08:45:10;17.20;99.90
19359;DHT22;9815;52.334;20.890;2023-09-30T08:47:42;17.30;99.90
19359;DHT22;9815;52.334;20.890;2023-09-30T08:50:11;17.20;99.90
19359;DHT22;9815;52.334;20.890;2023-09-30T08:52:41;17.20;99.90
19359;DHT22;9815;52.334;20.890;2023-09-30T08:55:11;17.10;99.90
19359;DHT22;9815;52.334;20.890;2023-09-30T08:57:41;17.10;99.90
19359;DHT22;9815;52.334;20.890;2023-09-30T09:00:12;17.10;99.90
19359;DHT22;9815;52.334;20.890;2023-09-30T09:02:42;17.10;99.90
19359;DHT22;9815;52.334;20.890;2023-09-30T09:05:11;17.10;99.90
19359;DHT22;9815;52.334;20.890;2023-09-30T09:07:39;17.10;99.90
19359;DHT22;9815;52.334;20.890;2023-09-30T09:10:10;17.20;99.90
19359;DHT22;9815;52.334;20.890;2023-09-30T09:12:41;17.10;99.90
19359;DHT22;9815;52.334;20.890;2023-09-30T09:15:20;17.10;99.90
19359;DHT22;9815;52.334;20.890;2023-09-30T09:17:51;17.10;99.90
19359;DHT22;9815;52.334;20.890;2023-09-30T09:20:21;17.10;99.90
19359;DHT22;9815;52.334;20.890;2023-09-30T09:22:51;17.10;99.90
19359;DHT22;9815;52.334;20.890;2023-09-30T09:25:21;17.10;99.90
19359;DHT22;9815;52.334;20.890;2023-09-30T09:27:51;17.10;99.90
19359;DHT22;9815;52.334;20.890;2023-09-30T09:30:22;17.10;99.90
19359;DHT22;9815;52.334;20.890;2023-09-30T09:32:54;17.10;99.90
19359;DHT22;9815;52.334;20.890;2023-09-30T09:35:22;17.10;99.90
19359;DHT22;9815;52.334;20.890;2023-09-30T09:37:59;17.20;99.90
19359;DHT22;9815;52.334;20.890;2023-09-30T09:40:28;17.10;99.90
19359;DHT22;9815;52.334;20.890;2023-09-30T09:42:59;17.10;99.90
19359;DHT22;9815;52.334;20.890;2023-09-30T09:45:32;17.10;99.90
19359;DHT22;9815;52.334;20.890;2023-09-30T09:48:03;17.10;99.90
19359;DHT22;9815;52.334;20.890;2023-09-30T09:50:33;17.10;99.90
19359;DHT22;9815;52.334;20.890;2023-09-30T09:53:05;17.10;99.90
19359;DHT22;9815;52.334;20.890;2023-09-30T09:55:33;17.10;99.90
19359;DHT22;9815;52.334;20.890;2023-09-30T09:58:07;17.10;99.90
19359;DHT22;9815;52.334;20.890;2023-09-30T10:00:38;17.10;99.90
19359;DHT22;9815;52.334;20.890;2023-09-30T10:03:08;17.10;99.90
19359;DHT22;9815;52.334;20.890;2023-09-30T10:05:38;17.10;99.90
19359;DHT22;9815;52.334;20.890;2023-09-30T10:08:11;17.00;99.90
19359;DHT22;9815;52.334;20.890;2023-09-30T10:10:40;16.90;99.90
19359;DHT22;9815;52.334;20.890;2023-09-30T10:13:09;16.80;99.90
19359;DHT22;9815;52.334;20.890;2023-09-30T10:15:40;16.70;99.90
19359;DHT22;9815;52.334;20.890;2023-09-30T10:18:11;16.70;99.90
19359;DHT22;9815;52.334;20.890;2023-09-30T10:20:43;16.70;99.90
19359;DHT22;9815;52.334;20.890;2023-09-30T10:23:24;16.70;99.90
19359;DHT22;9815;52.334;20.890;2023-09-30T10:25:54;16.70;99.90
19359;DHT22;9815;52.334;20.890;2023-09-30T10:28:43;16.80;99.90
19359;DHT22;9815;52.334;20.890;2023-09-30T10:31:14;16.80;99.90
19359;DHT22;9815;52.334;20.890;2023-09-30T10:34:22;16.70;99.90
19359;DHT22;9815;52.334;20.890;2023-09-30T10:36:51;16.60;99.90
19359;DHT22;9815;52.334;20.890;2023-09-30T10:39:55;16.60;99.90
19359;DHT22;9815;52.334;20.890;2023-09-30T10:42:48;16.50;99.90
19359;DHT22;9815;52.334;20.890;2023-09-30T10:45:43;16.50;99.90
19359;DHT22;9815;52.334;20.890;2023-09-30T10:48:36;16.40;99.90
19359;DHT22;9815;52.334;20.890;2023-09-30T10:51:13;16.50;99.90
19359;DHT22;9815;52.334;20.890;2023-09-30T10:53:44;16.50;99.90
19359;DHT22;9815;52.334;20.890;2023-09-30T10:56:13;16.60;99.90
19359;DHT22;9815;52.334;20.890;2023-09-30T10:58:43;16.60;99.90
19359;DHT22;9815;52.334;20.890;2023-09-30T11:01:12;16.70;99.90
19359;DHT22;9815;52.334;20.890;2023-09-30T11:03:41;16.80;99.90
19359;DHT22;9815;52.334;20.890;2023-09-30T11:06:13;16.70;99.90
19359;DHT22;9815;52.334;20.890;2023-09-30T11:08:50;16.70;99.90
19359;DHT22;9815;52.334;20.890;2023-09-30T11:11:18;16.70;99.90
19359;DHT22;9815;52.334;20.890;2023-09-30T11:13:47;16.50;99.90
19359;DHT22;9815;52.334;20.890;2023-09-30T11:16:15;16.40;99.90
19359;DHT22;9815;52.334;20.890;2023-09-30T11:18:43;16.40;99.90
19359;DHT22;9815;52.334;20.890;2023-09-30T11:21:13;16.20;99.90
19359;DHT22;9815;52.334;20.890;2023-09-30T11:23:42;16.20;99.90
19359;DHT22;9815;52.334;20.890;2023-09-30T11:26:10;16.20;99.90
19359;DHT22;9815;52.334;20.890;2023-09-30T11:28:42;16.30;99.90
19359;DHT22;9815;52.334;20.890;2023-09-30T11:31:11;16.30;99.90
19359;DHT22;9815;52.334;20.890;2023-09-30T11:33:48;16.40;99.90
19359;DHT22;9815;52.334;20.890;2023-09-30T11:36:20;16.60;99.90
19359;DHT22;9815;52.334;20.890;2023-09-30T11:38:50;16.70;99.90
19359;DHT22;9815;52.334;20.890;2023-09-30T11:41:20;16.80;99.90
19359;DHT22;9815;52.334;20.890;2023-09-30T11:44:00;17.00;99.90
19359;DHT22;9815;52.334;20.890;2023-09-30T11:46:29;17.00;99.90
19359;DHT22;9815;52.334;20.890;2023-09-30T11:48:59;16.90;99.90
19359;DHT22;9815;52.334;20.890;2023-09-30T11:51:29;16.90;99.90
19359;DHT22;9815;52.334;20.890;2023-09-30T11:54:01;16.80;99.90
19359;DHT22;9815;52.334;20.890;2023-09-30T11:56:29;16.80;99.90
19359;DHT22;9815;52.334;20.890;2023-09-30T11:58:57;16.70;99.90
19359;DHT22;9815;52.334;20.890;2023-09-30T12:01:26;16.80;99.90
19359;DHT22;9815;52.334;20.890;2023-09-30T12:03:58;16.80;99.90
19359;DHT22;9815;52.334;20.890;2023-09-30T12:06:26;16.80;99.90
19359;DHT22;9815;52.334;20.890;2023-09-30T12:08:56;16.90;99.90
19359;DHT22;9815;52.334;20.890;2023-09-30T12:11:34;17.00;99.90
19359;DHT22;9815;52.334;20.890;2023-09-30T12:14:06;17.20;99.90
19359;DHT22;9815;52.334;20.890;2023-09-30T12:16:35;17.20;99.90
19359;DHT22;9815;52.334;20.890;2023-09-30T12:19:03;17.40;99.90
19359;DHT22;9815;52.334;20.890;2023-09-30T12:21:32;17.50;99.90
19359;DHT22;9815;52.334;20.890;2023-09-30T12:24:03;17.60;99.90
19359;DHT22;9815;52.334;20.890;2023-09-30T12:26:31;17.80;99.90
19359;DHT22;9815;52.334;20.890;2023-09-30T12:28:59;17.90;99.90
19359;DHT22;9815;52.334;20.890;2023-09-30T12:31:28;18.10;99.90
19359;DHT22;9815;52.334;20.890;2023-09-30T12:34:16;18.60;99.90
19359;DHT22;9815;52.334;20.890;2023-09-30T12:36:44;19.10;99.90
19359;DHT22;9815;52.334;20.890;2023-09-30T12:39:15;19.50;99.90
19359;DHT22;9815;52.334;20.890;2023-09-30T12:41:44;19.70;99.90
19359;DHT22;9815;52.334;20.890;2023-09-30T12:44:13;19.60;99.90
19359;DHT22;9815;52.334;20.890;2023-09-30T12:46:42;19.70;99.90
19359;DHT22;9815;52.334;20.890;2023-09-30T12:49:10;19.90;99.90
19359;DHT22;9815;52.334;20.890;2023-09-30T12:51:38;19.60;99.90
19359;DHT22;9815;52.334;20.890;2023-09-30T12:54:08;19.40;99.90
19359;DHT22;9815;52.334;20.890;2023-09-30T12:56:39;19.40;99.90
19359;DHT22;9815;52.334;20.890;2023-09-30T12:59:08;19.40;99.90
19359;DHT22;9815;52.334;20.890;2023-09-30T13:01:36;19.20;99.90
19359;DHT22;9815;52.334;20.890;2023-09-30T13:04:06;19.10;99.90
19359;DHT22;9815;52.334;20.890;2023-09-30T13:06:35;18.80;99.90
19359;DHT22;9815;52.334;20.890;2023-09-30T13:09:04;18.70;99.90
19359;DHT22;9815;52.334;20.890;2023-09-30T13:11:32;18.50;99.90
19359;DHT22;9815;52.334;20.890;2023-09-30T13:14:13;18.40;99.90
19359;DHT22;9815;52.334;20.890;2023-09-30T13:16:47;18.30;99.90
19359;DHT22;9815;52.334;20.890;2023-09-30T13:19:15;18.20;99.90
19359;DHT22;9815;52.334;20.890;2023-09-30T13:21:48;18.10;99.90
19359;DHT22;9815;52.334;20.890;2023-09-30T13:24:17;18.20;99.90
19359;DHT22;9815;52.334;20.890;2023-09-30T13:26:46;18.20;99.90
19359;DHT22;9815;52.334;20.890;2023-09-30T13:29:15;18.20;99.90
19359;DHT22;9815;52.334;20.890;2023-09-30T13:31:44;18.30;99.70
19359;DHT22;9815;52.334;20.890;2023-09-30T13:34:14;18.20;90.70
19359;DHT22;9815;52.334;20.890;2023-09-30T13:36:43;18.30;88.20
19359;DHT22;9815;52.334;20.890;2023-09-30T13:39:11;18.50;61.90
19359;DHT22;9815;52.334;20.890;2023-09-30T13:41:41;18.70;57.70
19359;DHT22;9815;52.334;20.890;2023-09-30T13:44:09;19.00;58.50
19359;DHT22;9815;52.334;20.890;2023-09-30T13:46:40;19.30;55.70
19359;DHT22;9815;52.334;20.890;2023-09-30T13:49:09;19.50;48.10
19359;DHT22;9815;52.334;20.890;2023-09-30T13:51:37;19.50;40.10
19359;DHT22;9815;52.334;20.890;2023-09-30T13:54:06;19.50;41.40
19359;DHT22;9815;52.334;20.890;2023-09-30T13:56:35;19.50;36.60
19359;DHT22;9815;52.334;20.890;2023-09-30T13:59:04;19.40;32.40
19359;DHT22;9815;52.334;20.890;2023-09-30T14:01:35;19.40;33.30
19359;DHT22;9815;52.334;20.890;2023-09-30T14:04:05;19.30;33.50
19359;DHT22;9815;52.334;20.890;2023-09-30T14:06:34;19.30;36.60
19359;DHT22;9815;52.334;20.890;2023-09-30T14:09:04;19.10;36.90
19359;DHT22;9815;52.334;20.890;2023-09-30T14:11:33;18.90;37.50
19359;DHT22;9815;52.334;20.890;2023-09-30T14:14:01;18.90;38.90
19359;DHT22;9815;52.334;20.890;2023-09-30T14:16:31;18.80;43.40
19359;DHT22;9815;52.334;20.890;2023-09-30T14:18:59;18.80;39.60
19359;DHT22;9815;52.334;20.890;2023-09-30T14:21:29;18.80;38.80
19359;DHT22;9815;52.334;20.890;2023-09-30T14:23:59;18.70;40.00
19359;DHT22;9815;52.334;20.890;2023-09-30T14:26:28;18.70;38.70
19359;DHT22;9815;52.334;20.890;2023-09-30T14:28:57;18.60;36.90
19359;DHT22;9815;52.334;20.890;2023-09-30T14:31:26;18.50;36.50
19359;DHT22;9815;52.334;20.890;2023-09-30T14:33:55;18.50;35.40
19359;DHT22;9815;52.334;20.890;2023-09-30T14:36:23;18.40;38.30
19359;DHT22;9815;52.334;20.890;2023-09-30T14:38:53;18.40;46.10
19359;DHT22;9815;52.334;20.890;2023-09-30T14:41:40;18.20;40.70
19359;DHT22;9815;52.334;20.890;2023-09-30T14:44:08;18.10;40.50
19359;DHT22;9815;52.334;20.890;2023-09-30T14:46:39;18.00;45.10
19359;DHT22;9815;52.334;20.890;2023-09-30T14:49:07;18.00;48.10
19359;DHT22;9815;52.334;20.890;2023-09-30T14:51:36;17.90;44.60
19359;DHT22;9815;52.334;20.890;2023-09-30T14:54:06;17.90;43.10
19359;DHT22;9815;52.334;20.890;2023-09-30T14:56:35;17.80;46.70
19359;DHT22;9815;52.334;20.890;2023-09-30T14:59:03;17.80;51.90
19359;DHT22;9815;52.334;20.890;2023-09-30T15:01:32;17.70;50.90
19359;DHT22;9815;52.334;20.890;2023-09-30T15:04:01;17.70;49.20
19359;DHT22;9815;52.334;20.890;2023-09-30T15:06:30;17.70;54.70
19359;DHT22;9815;52.334;20.890;2023-09-30T15:08:58;17.70;53.00
19359;DHT22;9815;52.334;20.890;2023-09-30T15:11:28;17.70;54.60
19359;DHT22;9815;52.334;20.890;2023-09-30T15:13:56;17.70;60.70
19359;DHT22;9815;52.334;20.890;2023-09-30T15:16:25;17.70;63.00
19359;DHT22;9815;52.334;20.890;2023-09-30T15:18:54;17.70;59.60
19359;DHT22;9815;52.334;20.890;2023-09-30T15:21:23;17.70;54.00
19359;DHT22;9815;52.334;20.890;2023-09-30T15:23:52;17.70;62.90
19359;DHT22;9815;52.334;20.890;2023-09-30T15:26:20;17.80;63.60
19359;DHT22;9815;52.334;20.890;2023-09-30T15:28:50;17.70;61.40
19359;DHT22;9815;52.334;20.890;2023-09-30T15:31:18;17.70;57.40
19359;DHT22;9815;52.334;20.890;2023-09-30T15:33:47;17.70;56.50
19359;DHT22;9815;52.334;20.890;2023-09-30T15:36:16;17.70;51.70
19359;DHT22;9815;52.334;20.890;2023-09-30T15:38:45;17.60;51.60
19359;DHT22;9815;52.334;20.890;2023-09-30T15:41:14;17.60;50.50
19359;DHT22;9815;52.334;20.890;2023-09-30T15:43:43;17.60;52.00
19359;DHT22;9815;52.334;20.890;2023-09-30T15:46:13;17.60;50.50
19359;DHT22;9815;52.334;20.890;2023-09-30T15:48:41;17.50;52.70